createdAt,value
2022-10-06T00:14:19.575Z,17.40
2022-10-06T00:29:23.982Z,17.50
2022-10-06T00:44:29.506Z,17.00
2022-10-06T00:59:34.231Z,16.90
2022-10-06T01:14:41.019Z,16.90
2022-10-06T01:29:45.869Z,17.10
2022-10-06T01:44:50.397Z,17.20
2022-10-06T01:59:55.157Z,17.30
2022-10-06T02:15:01.235Z,16.60
2022-10-06T02:30:08.773Z,17.00
2022-10-06T02:45:14.324Z,17.10
2022-10-06T03:00:19.365Z,16.60
2022-10-06T03:15:25.661Z,17.20
2022-10-06T03:30:30.264Z,16.50
2022-10-06T03:45:34.877Z,16.30
2022-10-06T04:00:39.430Z,16.40
2022-10-06T04:15:44.064Z,16.70
2022-10-06T04:30:57.942Z,16.30
2022-10-06T04:46:23.897Z,16.80
2022-10-06T05:01:31.033Z,16.90
2022-10-06T05:16:37.986Z,16.90
2022-10-06T05:31:44.889Z,16.80
2022-10-06T05:46:51.397Z,16.60
2022-10-06T06:01:58.182Z,16.80
2022-10-06T06:17:11.320Z,16.30
2022-10-06T06:32:16.090Z,16.40
2022-10-06T06:47:24.479Z,16.00
2022-10-06T07:02:31.333Z,16.30
2022-10-06T07:17:54.737Z,15.90
2022-10-06T07:33:00.288Z,16.10
2022-10-06T07:48:06.581Z,16.60
2022-10-06T08:03:12.629Z,16.80
2022-10-06T08:18:40.968Z,16.80
2022-10-06T08:33:42.322Z,17.10
2022-10-06T08:48:46.737Z,16.70
2022-10-06T09:03:53.630Z,16.60
2022-10-06T09:19:08.802Z,17.30
2022-10-06T09:34:22.602Z,17.10
2022-10-06T09:49:31.423Z,17.60
2022-10-06T10:04:40.764Z,18.00
2022-10-06T10:19:47.873Z,18.40
2022-10-06T10:35:16.645Z,18.90
2022-10-06T10:50:25.784Z,19.50
2022-10-06T11:05:44.186Z,19.00
2022-10-06T11:20:53.629Z,19.30
2022-10-06T11:35:58.093Z,19.60
2022-10-06T11:51:30.524Z,20.40
2022-10-06T12:07:05.745Z,20.50
2022-10-06T12:22:20.188Z,20.50
2022-10-06T12:37:53.034Z,20.80
2022-10-06T12:53:05.641Z,20.80
2022-10-06T13:08:23.110Z,20.60
2022-10-06T13:23:30.268Z,21.00
2022-10-06T13:38:36.855Z,21.60
2022-10-06T13:53:41.257Z,21.70
2022-10-06T14:08:51.459Z,23.30
2022-10-06T14:23:56.496Z,24.80
2022-10-06T14:39:01.420Z,26.30
2022-10-06T14:54:07.421Z,27.20
2022-10-06T15:09:12.336Z,27.50
2022-10-06T15:24:18.202Z,27.20
2022-10-06T15:39:24.603Z,27.50
2022-10-06T15:54:30.834Z,26.20
2022-10-06T16:09:42.043Z,25.60
2022-10-06T16:24:47.521Z,24.00
2022-10-06T16:39:52.774Z,23.10
2022-10-06T16:54:57.391Z,22.50
2022-10-06T17:10:19.589Z,22.00
2022-10-06T17:25:25.261Z,21.80
2022-10-06T17:40:29.760Z,21.60
2022-10-06T17:55:36.691Z,21.40
2022-10-06T18:11:05.687Z,21.20
2022-10-06T18:26:11.463Z,21.10
2022-10-06T18:41:18.014Z,20.80
2022-10-06T18:56:23.630Z,20.80
2022-10-06T19:11:49.996Z,20.70
2022-10-06T19:26:56.323Z,20.50
2022-10-06T19:42:18.077Z,20.30
2022-10-06T19:57:22.725Z,20.10
2022-10-06T20:12:28.261Z,20.00
2022-10-06T20:27:32.592Z,19.90
2022-10-06T20:42:36.936Z,19.90
2022-10-06T20:57:41.351Z,19.80
2022-10-06T21:12:46.115Z,19.50
2022-10-06T21:27:50.398Z,19.50
2022-10-06T21:42:54.751Z,19.40
2022-10-06T21:57:59.079Z,19.20
2022-10-06T22:13:03.423Z,19.20
2022-10-06T22:28:07.759Z,19.10
2022-10-06T22:43:12.072Z,19.10
2022-10-06T22:58:17.454Z,18.90
2022-10-06T23:13:22.503Z,18.80
2022-10-06T23:28:26.865Z,18.70
2022-10-06T23:43:30.991Z,18.40
2022-10-06T23:58:35.446Z,18.40
